Time;durP1;ratioP1;P1;durP2;ratioP2;P2;SDS_P1;SDS_P2;PMS_P1;PMS_P2;Temp;Humidity;BMP_temperature;BMP_pressure;BME280_temperature;BME280_humidity;BME280_pressure;Samples;Min_cycle;Max_cycle;Signal;HPM_P1;HPM_P2
2022/04/04 00:00:08;;;;;;;7.00;1.60;;;2.20;99.90;;;;;;4899851;29;20056;-82
2022/04/04 00:02:33;;;;;;;10.73;2.10;;;2.20;99.90;;;;;;4899743;29;20040;-78
2022/04/04 00:05:01;;;;;;;5.07;1.90;;;2.20;99.90;;;;;;4883299;29;20390;-81
2022/04/04 00:07:27;;;;;;;5.13;1.92;;;2.30;99.90;;;;;;4899449;29;20413;-82
2022/04/04 00:09:53;;;;;;;7.72;2.28;;;3.10;99.90;;;;;;4898856;29;20394;-82
2022/04/04 00:12:18;;;;;;;9.73;2.22;;;2.30;99.90;;;;;;4899424;29;20043;-82
2022/04/04 00:14:44;;;;;;;6.10;2.17;;;2.30;99.90;;;;;;4898783;29;20143;-82
2022/04/04 00:17:11;;;;;;;4.30;1.90;;;2.70;99.90;;;;;;4882610;29;20157;-81
2022/04/04 00:19:36;;;;;;;7.13;1.80;;;2.30;99.90;;;;;;4899463;29;20057;-83
2022/04/04 00:22:03;;;;;;;4.32;1.70;;;2.30;99.90;;;;;;4882908;29;20045;-83
2022/04/04 00:24:28;;;;;;;7.03;2.10;;;2.30;99.90;;;;;;4896786;29;20101;-83
2022/04/04 00:26:54;;;;;;;5.70;1.90;;;2.30;99.90;;;;;;4881992;29;20088;-83
2022/04/04 00:29:20;;;;;;;10.18;2.20;;;2.60;99.90;;;;;;4867390;29;20135;-82
2022/04/04 00:31:46;;;;;;;6.63;2.38;;;2.30;99.90;;;;;;4899377;29;20485;-83
2022/04/04 00:34:11;;;;;;;7.05;2.08;;;2.30;99.90;;;;;;4882080;29;20049;-82
2022/04/04 00:36:39;;;;;;;7.07;2.50;;;2.30;99.90;;;;;;4882493;29;20413;-82
2022/04/04 00:39:04;;;;;;;5.00;1.95;;;2.30;99.90;;;;;;4898804;29;20059;-83
2022/04/04 00:41:30;;;;;;;5.10;2.25;;;2.30;99.90;;;;;;4898359;29;20041;-83
2022/04/04 00:43:56;;;;;;;4.82;1.90;;;2.30;99.90;;;;;;4899147;29;20056;-82
2022/04/04 00:46:21;;;;;;;6.63;2.42;;;2.30;99.90;;;;;;4882243;29;20080;-81
2022/04/04 00:48:48;;;;;;;7.45;2.45;;;2.30;99.90;;;;;;4899178;29;20048;-82
2022/04/04 00:51:13;;;;;;;6.50;2.30;;;2.30;99.90;;;;;;4898861;29;20051;-82
2022/04/04 00:53:39;;;;;;;5.28;1.63;;;2.30;99.90;;;;;;4882385;29;20045;-82
2022/04/04 00:56:07;;;;;;;10.07;2.53;;;2.30;99.90;;;;;;4898279;29;20040;-83
2022/04/04 00:58:36;;;;;;;6.50;2.13;;;3.30;99.90;;;;;;4866784;29;20044;-83
2022/04/04 01:01:03;;;;;;;9.65;2.88;;;3.00;99.90;;;;;;4876702;29;20040;-82
2022/04/04 01:03:28;;;;;;;7.03;2.67;;;3.20;99.90;;;;;;4917519;29;20127;-77
2022/04/04 01:05:59;;;;;;;8.05;2.20;;;2.40;99.90;;;;;;4917795;29;20104;-78
2022/04/04 01:08:25;;;;;;;9.18;3.10;;;2.40;99.90;;;;;;4917873;29;20056;-81
2022/04/04 01:10:51;;;;;;;5.63;2.10;;;2.50;99.90;;;;;;4903980;29;20119;-82
2022/04/04 01:13:17;;;;;;;7.47;2.75;;;2.50;99.90;;;;;;4899629;29;20079;-81
2022/04/04 01:15:43;;;;;;;7.60;2.40;;;2.50;99.90;;;;;;4882269;29;20075;-81
2022/04/04 01:18:09;;;;;;;6.70;2.28;;;2.50;99.90;;;;;;4898564;29;20493;-79
2022/04/04 01:20:36;;;;;;;8.30;3.60;;;3.30;99.90;;;;;;4881764;29;20442;-79
2022/04/04 01:23:04;;;;;;;6.35;2.38;;;2.50;99.90;;;;;;4881180;29;20048;-81
2022/04/04 01:25:31;;;;;;;7.25;2.38;;;2.50;99.90;;;;;;4898510;29;20104;-78
2022/04/04 01:27:58;;;;;;;9.82;3.05;;;3.70;99.90;;;;;;4865863;29;20055;-81
2022/04/04 01:30:25;;;;;;;7.80;3.15;;;2.60;99.90;;;;;;4898281;29;20537;-79
2022/04/04 01:32:51;;;;;;;8.43;3.30;;;2.60;99.90;;;;;;4881379;29;20049;-80
2022/04/04 01:35:17;;;;;;;10.07;3.78;;;3.40;99.90;;;;;;4898493;29;20052;-81
2022/04/04 01:37:43;;;;;;;9.20;3.25;;;2.60;99.90;;;;;;4881170;29;20060;-83
2022/04/04 01:40:10;;;;;;;10.98;3.92;;;2.60;99.90;;;;;;4896850;29;20056;-82
2022/04/04 01:42:37;;;;;;;10.35;3.65;;;2.70;99.90;;;;;;4898254;29;20044;-82
2022/04/04 01:45:07;;;;;;;11.10;4.32;;;3.70;99.90;;;;;;4897199;29;20088;-81
2022/04/04 01:47:33;;;;;;;10.15;3.88;;;2.70;99.90;;;;;;4881282;29;20453;-81
2022/04/04 01:49:59;;;;;;;11.63;4.43;;;3.70;99.90;;;;;;4881314;29;20084;-81
2022/04/04 01:52:25;;;;;;;11.23;5.22;;;3.00;99.90;;;;;;4898051;29;20049;-83
2022/04/04 01:54:51;;;;;;;11.93;4.72;;;2.70;99.90;;;;;;4898157;29;20037;-80
2022/04/04 01:57:17;;;;;;;12.18;5.05;;;2.80;99.90;;;;;;4881016;29;20058;-83
2022/04/04 01:59:43;;;;;;;11.85;5.00;;;2.80;99.90;;;;;;4897664;29;20044;-82
2022/04/04 02:02:09;;;;;;;13.00;5.53;;;2.80;99.90;;;;;;4881250;29;20044;-82
2022/04/04 02:04:35;;;;;;;18.02;6.07;;;2.80;99.90;;;;;;4881223;29;20044;-81
2022/04/04 02:07:01;;;;;;;13.07;5.63;;;2.80;99.90;;;;;;4865031;29;20638;-82
2022/04/04 02:09:26;;;;;;;13.88;6.00;;;2.90;99.90;;;;;;4897592;29;20104;-83
2022/04/04 02:11:52;;;;;;;14.60;6.25;;;2.90;99.90;;;;;;4897543;29;20041;-83
2022/04/04 02:14:18;;;;;;;16.65;7.13;;;2.90;99.90;;;;;;4881095;29;20103;-82
2022/04/04 02:16:44;;;;;;;15.88;6.85;;;2.90;99.90;;;;;;4880256;29;20084;-80
2022/04/04 02:19:10;;;;;;;16.15;7.63;;;3.30;99.90;;;;;;4898038;29;20052;-83
2022/04/04 02:21:36;;;;;;;17.65;7.22;;;3.00;99.90;;;;;;4897975;29;20048;-83
2022/04/04 02:24:02;;;;;;;16.58;7.75;;;3.00;99.90;;;;;;4897803;29;20056;-82
2022/04/04 02:26:29;;;;;;;17.15;7.78;;;3.00;99.90;;;;;;4897671;29;20115;-82
2022/04/04 02:28:54;;;;;;;12.75;5.13;;;3.00;99.90;;;;;;4897448;29;20486;-82
2022/04/04 02:31:20;;;;;;;14.63;6.53;;;3.00;99.90;;;;;;4897468;29;20105;-82
2022/04/04 02:33:45;;;;;;;13.90;6.38;;;3.00;99.90;;;;;;4898907;29;20382;-83
2022/04/04 02:36:12;;;;;;;17.13;5.43;;;3.00;99.90;;;;;;4901222;29;20120;-82
2022/04/04 02:38:37;;;;;;;13.75;5.28;;;3.00;99.90;;;;;;4883967;29;20065;-80
2022/04/04 02:41:04;;;;;;;11.10;5.07;;;3.00;99.90;;;;;;4901237;29;20049;-82
2022/04/04 02:43:31;;;;;;;13.23;6.20;;;3.10;99.90;;;;;;4901091;29;20062;-82
2022/04/04 02:45:58;;;;;;;13.32;6.05;;;3.10;99.90;;;;;;4901419;29;20136;-81
2022/04/04 02:48:23;;;;;;;13.70;5.85;;;3.10;99.90;;;;;;4900558;29;20045;-81
2022/04/04 02:50:50;;;;;;;14.20;5.70;;;3.70;99.90;;;;;;4901185;29;20036;-82
2022/04/04 02:53:16;;;;;;;12.35;6.20;;;3.70;99.90;;;;;;4900939;29;20051;-79
2022/04/04 02:58:26;;;;;;;14.70;5.97;;;3.10;99.90;;;;;;4883237;29;20140;-81
2022/04/04 03:00:52;;;;;;;14.63;6.00;;;3.10;99.90;;;;;;4900923;29;20083;-79
2022/04/04 03:03:19;;;;;;;14.43;6.68;;;3.10;99.90;;;;;;4900877;29;20165;-80
2022/04/04 03:05:44;;;;;;;16.35;6.25;;;3.10;99.90;;;;;;4900711;29;20063;-82
2022/04/04 03:08:10;;;;;;;18.25;6.20;;;3.20;99.90;;;;;;4900829;29;20040;-81
2022/04/04 03:10:36;;;;;;;13.45;6.28;;;3.20;99.90;;;;;;4900558;29;20501;-82
2022/04/04 03:13:05;;;;;;;15.25;6.07;;;3.20;99.90;;;;;;4900825;29;20049;-82
2022/04/04 03:15:34;;;;;;;13.70;5.55;;;3.20;99.90;;;;;;4868525;29;20041;-79
2022/04/04 03:18:00;;;;;;;15.40;6.22;;;3.20;99.90;;;;;;4868209;29;20052;-81
2022/04/04 03:20:26;;;;;;;15.60;6.03;;;4.10;99.90;;;;;;4899849;29;20494;-82
2022/04/04 03:22:55;;;;;;;14.40;5.63;;;3.30;99.90;;;;;;4900548;29;20438;-82
2022/04/04 03:25:21;;;;;;;15.07;5.88;;;3.30;99.90;;;;;;4900236;29;20524;-81
2022/04/04 03:27:48;;;;;;;16.50;5.93;;;4.30;99.90;;;;;;4900647;29;20040;-81
2022/04/04 03:30:17;;;;;;;15.52;6.38;;;3.30;99.90;;;;;;4900414;29;20100;-81
2022/04/04 03:32:47;;;;;;;17.35;5.65;;;3.30;99.90;;;;;;4883745;29;20088;-81
2022/04/04 03:35:17;;;;;;;14.02;5.97;;;3.30;99.90;;;;;;4883496;29;20131;-81
2022/04/04 03:37:45;;;;;;;13.30;5.90;;;3.30;99.90;;;;;;4882719;29;20057;-80
2022/04/04 03:40:13;;;;;;;20.88;6.65;;;3.90;99.90;;;;;;4883395;29;20056;-81
2022/04/04 03:42:43;;;;;;;23.35;7.82;;;3.30;99.90;;;;;;4899975;29;20052;-81
2022/04/04 03:45:14;;;;;;;13.15;6.07;;;4.40;99.90;;;;;;4882486;29;20516;-79
2022/04/04 03:47:41;;;;;;;14.10;6.45;;;3.40;99.90;;;;;;4867542;29;20481;-81
2022/04/04 03:50:14;;;;;;;21.75;6.85;;;3.40;99.90;;;;;;4883050;29;20412;-80
2022/04/04 03:52:41;;;;;;;16.77;6.90;;;3.50;99.90;;;;;;4882108;29;20041;-81
2022/04/04 03:55:08;;;;;;;18.27;7.57;;;3.50;99.90;;;;;;4867915;29;20052;-81
2022/04/04 03:57:35;;;;;;;16.20;6.57;;;3.60;99.90;;;;;;4882998;29;20493;-81
2022/04/04 04:00:01;;;;;;;17.25;6.65;;;3.60;99.90;;;;;;4899886;29;20053;-79
2022/04/04 04:02:27;;;;;;;16.38;6.68;;;3.70;99.90;;;;;;4899758;29;20136;-80
2022/04/04 04:04:54;;;;;;;19.05;10.10;;;3.70;99.90;;;;;;4899769;29;20084;-81
2022/04/04 04:07:24;;;;;;;19.58;9.57;;;3.80;99.90;;;;;;4899356;29;20549;-82
2022/04/04 04:09:51;;;;;;;18.25;7.53;;;4.10;99.90;;;;;;4866780;29;20056;-83
2022/04/04 04:12:17;;;;;;;20.45;7.78;;;4.00;99.90;;;;;;4898384;29;20062;-80
2022/04/04 04:14:43;;;;;;;16.15;7.35;;;4.10;99.90;;;;;;4899637;29;20143;-81
2022/04/04 04:17:09;;;;;;;17.15;7.45;;;4.10;99.90;;;;;;4899397;29;20052;-83
2022/04/04 04:22:22;;;;;;;21.48;6.85;;;4.10;99.90;;;;;;4899716;29;20119;-80
2022/04/04 04:24:48;;;;;;;16.83;6.53;;;4.20;99.90;;;;;;4881890;29;20090;-81
2022/04/04 04:27:15;;;;;;;15.20;6.10;;;4.20;99.90;;;;;;4867490;29;20088;-80
2022/04/04 04:29:41;;;;;;;15.82;7.47;;;4.10;99.90;;;;;;4899313;29;20151;-82
2022/04/04 04:32:10;;;;;;;21.15;7.53;;;4.10;99.90;;;;;;4899417;29;20044;-82
2022/04/04 04:34:36;;;;;;;13.68;6.55;;;4.10;99.90;;;;;;4899168;29;20058;-82
2022/04/04 04:37:02;;;;;;;17.45;6.75;;;4.20;99.90;;;;;;4882154;29;20041;-82
2022/04/04 04:39:28;;;;;;;15.25;6.47;;;4.20;99.90;;;;;;4898909;29;20477;-82
2022/04/04 04:41:55;;;;;;;16.80;6.72;;;4.10;99.90;;;;;;4898781;29;20051;-81
2022/04/04 04:44:21;;;;;;;21.88;7.20;;;4.10;99.90;;;;;;4881766;29;20053;-81
2022/04/04 04:46:48;;;;;;;17.20;6.93;;;4.10;99.90;;;;;;4898895;29;20151;-82
2022/04/04 04:49:15;;;;;;;21.35;7.03;;;4.70;99.90;;;;;;4882047;29;20052;-82
2022/04/04 04:51:41;;;;;;;17.33;6.55;;;4.00;99.90;;;;;;4898205;29;20110;-80
2022/04/04 04:54:08;;;;;;;14.30;6.78;;;4.10;99.90;;;;;;4866546;29;20144;-80
2022/04/04 04:56:35;;;;;;;19.67;7.40;;;4.20;99.90;;;;;;4897898;29;20505;-79
2022/04/04 04:59:01;;;;;;;14.43;6.60;;;4.00;99.90;;;;;;4898367;29;20394;-79
2022/04/04 05:01:27;;;;;;;13.98;6.40;;;4.00;99.90;;;;;;4898508;29;20449;-79
2022/04/04 05:03:53;;;;;;;13.82;6.65;;;4.00;99.90;;;;;;4881241;29;20123;-77
2022/04/04 05:06:18;;;;;;;13.65;6.80;;;5.00;99.90;;;;;;4898262;29;20157;-77
2022/04/04 05:08:44;;;;;;;15.00;7.15;;;4.00;99.90;;;;;;4898668;29;20056;-79
2022/04/04 05:11:10;;;;;;;16.02;7.05;;;4.00;99.90;;;;;;4898296;29;20048;-79
2022/04/04 05:13:36;;;;;;;16.27;6.10;;;4.00;99.90;;;;;;4897958;29;20052;-80
2022/04/04 05:16:08;;;;;;;20.17;6.75;;;4.00;99.90;;;;;;4881520;29;20056;-80
2022/04/04 05:18:34;;;;;;;;;;;4.00;99.90;;;;;;4898407;29;20048;-79
2022/04/04 05:21:00;;;;;;;16.08;7.15;;;4.00;99.90;;;;;;4898233;29;19930;-78
2022/04/04 05:23:27;;;;;;;15.18;6.15;;;4.00;99.90;;;;;;4898578;29;20057;-79
2022/04/04 05:25:52;;;;;;;16.85;7.68;;;4.00;99.90;;;;;;4898701;29;20474;-79
2022/04/04 05:28:18;;;;;;;16.52;7.20;;;4.00;99.90;;;;;;4897786;29;20082;-79
2022/04/04 05:30:47;;;;;;;16.33;7.20;;;4.00;99.90;;;;;;4898220;29;20112;-79
2022/04/04 05:33:14;;;;;;;14.43;6.35;;;5.10;99.90;;;;;;4897578;29;20148;-80
2022/04/04 05:35:40;;;;;;;15.38;7.32;;;4.00;99.90;;;;;;4897901;29;20197;-80
2022/04/04 05:38:06;;;;;;;15.82;7.30;;;4.00;99.90;;;;;;4898058;29;20044;-79
2022/04/04 05:40:31;;;;;;;16.80;6.93;;;4.00;99.90;;;;;;4898069;29;20044;-77
2022/04/04 05:42:57;;;;;;;14.70;7.32;;;4.80;99.90;;;;;;4881273;29;20400;-79
2022/04/04 05:45:23;;;;;;;18.92;6.70;;;4.00;99.90;;;;;;4880578;29;20485;-79
2022/04/04 05:47:49;;;;;;;14.88;6.72;;;4.00;99.90;;;;;;4881176;29;20048;-80
2022/04/04 05:50:15;;;;;;;16.15;6.72;;;4.20;99.90;;;;;;4881122;29;20497;-79
2022/04/04 05:52:42;;;;;;;14.20;6.47;;;3.90;99.90;;;;;;4897957;29;20140;-80
2022/04/04 05:55:08;;;;;;;16.83;7.55;;;3.90;99.90;;;;;;4897793;29;20092;-79
2022/04/04 05:57:36;;;;;;;15.50;6.50;;;3.90;99.90;;;;;;4897718;29;20055;-75
2022/04/04 06:00:04;;;;;;;16.52;6.57;;;3.90;99.90;;;;;;4897108;29;20123;-75
2022/04/04 06:02:35;;;;;;;18.63;7.63;;;4.00;99.90;;;;;;4897273;29;20040;-78
2022/04/04 06:05:00;;;;;;;21.33;7.70;;;4.00;99.90;;;;;;4897369;29;20056;-79
2022/04/04 06:07:26;;;;;;;13.48;6.30;;;4.20;99.90;;;;;;4897668;29;20059;-79
2022/04/04 06:09:52;;;;;;;14.43;7.20;;;4.00;99.90;;;;;;4880564;29;20044;-77
2022/04/04 06:12:17;;;;;;;14.80;7.18;;;4.60;99.90;;;;;;4897495;29;20184;-75
2022/04/04 06:14:43;;;;;;;15.10;6.55;;;4.00;99.90;;;;;;4896483;29;20055;-86
2022/04/04 06:17:08;;;;;;;14.55;7.50;;;4.10;99.90;;;;;;4896187;29;20084;-80
2022/04/04 06:19:35;;;;;;;17.75;7.28;;;4.10;99.90;;;;;;4896872;29;20117;-82
2022/04/04 06:22:03;;;;;;;17.13;7.82;;;4.10;99.90;;;;;;4896660;29;20049;-79
2022/04/04 06:24:30;;;;;;;14.27;6.75;;;4.10;99.90;;;;;;4896564;29;20493;-79
2022/04/04 06:26:57;;;;;;;16.08;7.25;;;4.10;99.90;;;;;;4897064;29;20060;-79
2022/04/04 06:29:22;;;;;;;14.32;6.22;;;4.10;99.90;;;;;;4897481;29;20088;-80
2022/04/04 06:31:48;;;;;;;22.15;6.78;;;4.10;99.90;;;;;;4896708;29;20051;-80
2022/04/04 06:34:14;;;;;;;19.23;6.53;;;4.10;99.90;;;;;;4902437;29;20052;-79
2022/04/04 06:36:40;;;;;;;16.63;7.10;;;4.10;99.90;;;;;;4916329;29;20135;-81
2022/04/04 06:39:06;;;;;;;11.60;5.53;;;4.10;99.90;;;;;;4883115;29;20106;-81
2022/04/04 06:41:32;;;;;;;15.32;6.95;;;4.10;99.90;;;;;;4916673;29;20041;-81
2022/04/04 06:43:58;;;;;;;12.52;6.15;;;4.00;99.90;;;;;;4916573;29;20060;-81
2022/04/04 06:46:26;;;;;;;14.27;6.20;;;4.10;99.90;;;;;;4916643;29;20401;-79
2022/04/04 06:48:51;;;;;;;15.63;6.95;;;4.00;99.90;;;;;;4909969;29;20587;-74
2022/04/04 06:51:18;;;;;;;14.88;6.63;;;4.00;99.90;;;;;;4896858;29;20132;-79
2022/04/04 06:53:45;;;;;;;19.85;6.93;;;4.10;99.90;;;;;;4896798;29;20387;-76
2022/04/04 06:56:11;;;;;;;14.38;6.93;;;4.10;99.90;;;;;;4898561;29;20111;-78
2022/04/04 06:58:37;;;;;;;14.13;6.57;;;4.10;99.90;;;;;;4895622;29;20113;-73
2022/04/04 07:01:03;;;;;;;15.52;7.38;;;4.10;99.90;;;;;;4897076;29;20084;-71
2022/04/04 07:03:29;;;;;;;16.17;7.15;;;4.10;99.90;;;;;;4863606;29;20088;-78
2022/04/04 07:05:55;;;;;;;16.75;7.57;;;4.00;99.90;;;;;;4896318;29;20052;-76
2022/04/04 07:08:23;;;;;;;14.52;6.68;;;4.00;99.90;;;;;;4896437;29;20425;-74
2022/04/04 07:10:49;;;;;;;15.75;7.03;;;4.10;99.90;;;;;;4879643;29;20049;-79
2022/04/04 07:13:15;;;;;;;16.23;7.10;;;4.10;99.90;;;;;;4879524;29;20059;-74
2022/04/04 07:15:41;;;;;;;19.50;7.43;;;4.10;99.90;;;;;;4879399;29;20052;-73
2022/04/04 07:18:08;;;;;;;16.95;7.25;;;4.00;99.90;;;;;;4895966;29;20068;-77
2022/04/04 07:20:35;;;;;;;15.80;7.20;;;4.00;99.90;;;;;;4879978;29;20144;-76
2022/04/04 07:23:01;;;;;;;17.73;6.60;;;4.10;99.90;;;;;;4882741;29;20139;-78
2022/04/04 07:25:28;;;;;;;18.88;6.80;;;4.00;99.90;;;;;;4882726;29;20095;-76
2022/04/04 07:27:54;;;;;;;15.35;6.78;;;4.00;99.90;;;;;;4882968;29;20079;-82
2022/04/04 07:30:23;;;;;;;14.80;6.25;;;4.00;99.90;;;;;;4910996;29;20100;-81
2022/04/04 07:32:50;;;;;;;17.85;7.05;;;4.00;99.90;;;;;;4918936;29;20139;-82
2022/04/04 07:35:17;;;;;;;13.65;6.85;;;4.00;99.90;;;;;;4918363;29;20162;-76
2022/04/04 07:37:44;;;;;;;17.05;7.00;;;4.00;99.90;;;;;;4901885;29;20052;-82
2022/04/04 07:40:13;;;;;;;18.45;8.15;;;4.10;99.90;;;;;;4901316;29;20069;-79
2022/04/04 07:42:40;;;;;;;17.00;7.32;;;4.90;99.90;;;;;;4901782;29;20403;-80
2022/04/04 07:45:07;;;;;;;15.38;7.43;;;4.10;99.90;;;;;;4922820;29;20044;-74
2022/04/04 07:47:33;;;;;;;15.30;7.10;;;4.10;99.90;;;;;;4927783;29;20126;-74
2022/04/04 07:49:59;;;;;;;16.02;7.95;;;4.10;99.90;;;;;;4926431;29;20039;-76
2022/04/04 07:52:26;;;;;;;19.60;7.45;;;4.10;99.90;;;;;;4930157;29;20048;-75
2022/04/04 07:54:53;;;;;;;18.00;7.20;;;4.40;99.90;;;;;;4902287;29;20138;-81
2022/04/04 07:57:19;;;;;;;16.85;7.78;;;4.10;99.90;;;;;;4900664;29;20095;-76
2022/04/04 07:59:46;;;;;;;17.77;7.15;;;4.70;99.90;;;;;;4900893;29;20411;-75
2022/04/04 08:02:12;;;;;;;19.30;8.25;;;4.20;99.90;;;;;;4917828;29;20123;-76
2022/04/04 08:04:38;;;;;;;18.58;7.80;;;4.20;99.90;;;;;;4918011;29;20048;-77
2022/04/04 08:07:04;;;;;;;16.17;7.55;;;4.90;99.90;;;;;;4917364;29;20040;-77
2022/04/04 08:09:30;;;;;;;15.25;6.47;;;4.20;99.90;;;;;;4916846;29;20048;-80
2022/04/04 08:11:57;;;;;;;14.32;7.90;;;4.20;99.90;;;;;;4900661;29;20058;-75
2022/04/04 08:14:23;;;;;;;19.65;8.10;;;4.20;99.90;;;;;;4900584;29;20056;-74
2022/04/04 08:16:50;;;;;;;14.80;7.45;;;4.20;99.90;;;;;;4918024;29;20086;-73
2022/04/04 08:19:16;;;;;;;16.15;8.27;;;4.20;99.90;;;;;;4900902;29;20143;-73
2022/04/04 08:21:42;;;;;;;21.42;8.70;;;4.20;99.90;;;;;;4899738;29;20060;-80
2022/04/04 08:24:08;;;;;;;14.48;7.22;;;4.30;99.90;;;;;;4917172;29;20512;-76
2022/04/04 08:26:35;;;;;;;23.55;9.23;;;4.30;99.90;;;;;;4911538;29;20561;-77
2022/04/04 08:29:01;;;;;;;16.30;7.95;;;4.30;99.90;;;;;;4899258;29;20096;-82
2022/04/04 08:31:27;;;;;;;19.02;8.45;;;4.30;99.90;;;;;;4898809;29;20060;-74
2022/04/04 08:33:53;;;;;;;18.60;8.07;;;4.30;99.90;;;;;;4899875;29;20047;-81
2022/04/04 08:36:19;;;;;;;19.55;9.05;;;4.30;99.90;;;;;;4881212;29;20489;-75
2022/04/04 08:38:45;;;;;;;15.82;8.13;;;4.40;99.90;;;;;;4897360;29;20049;-77
2022/04/04 08:41:10;;;;;;;18.08;8.20;;;4.40;99.90;;;;;;4898924;29;20100;-78
2022/04/04 08:43:38;;;;;;;20.13;8.50;;;4.30;99.90;;;;;;4896649;29;20084;-78
2022/04/04 08:46:06;;;;;;;16.10;8.07;;;4.40;99.90;;;;;;4894443;29;20086;-79
2022/04/04 08:48:39;;;;;;;23.17;8.45;;;4.40;99.90;;;;;;4915129;29;20446;-75
2022/04/04 08:51:09;;;;;;;17.27;8.05;;;4.50;99.90;;;;;;4916478;29;20048;-81
2022/04/04 08:53:39;;;;;;;17.88;8.32;;;4.50;99.90;;;;;;4916811;29;20497;-78
2022/04/04 08:56:07;;;;;;;15.32;7.50;;;4.60;99.90;;;;;;4888203;29;20048;-76
2022/04/04 08:58:33;;;;;;;17.65;7.55;;;4.60;99.90;;;;;;4893694;29;20054;-78
2022/04/04 09:01:00;;;;;;;13.60;6.55;;;4.60;99.90;;;;;;4879155;29;20188;-75
2022/04/04 09:03:29;;;;;;;14.93;6.50;;;4.70;99.90;;;;;;4893752;29;20044;-76
2022/04/04 09:05:57;;;;;;;15.93;7.40;;;4.70;99.90;;;;;;4894743;29;20053;-73
2022/04/04 09:08:23;;;;;;;13.13;6.57;;;4.80;99.90;;;;;;4891409;29;20040;-82
2022/04/04 09:10:54;;;;;;;14.80;6.05;;;4.80;99.90;;;;;;4878299;29;20044;-81
2022/04/04 09:13:22;;;;;;;11.35;5.22;;;4.80;99.90;;;;;;4859765;29;20049;-74
2022/04/04 09:15:54;;;;;;;14.32;6.68;;;4.90;99.90;;;;;;4879313;29;20135;-73
2022/04/04 09:18:46;;;;;;;12.60;5.22;;;4.90;99.90;;;;;;4877719;29;20526;-77
2022/04/04 09:21:17;;;;;;;12.43;5.45;;;4.90;99.90;;;;;;4877659;29;20052;-77
2022/04/04 09:23:46;;;;;;;12.32;5.53;;;4.90;99.90;;;;;;4878497;29;20404;-73
2022/04/04 09:26:30;;;;;;;10.18;3.90;;;5.00;99.90;;;;;;4882967;29;20090;-71
2022/04/04 09:29:01;;;;;;;14.85;4.25;;;5.00;99.90;;;;;;4879776;29;20045;-75
2022/04/04 09:31:27;;;;;;;8.20;3.40;;;5.00;99.90;;;;;;4895501;29;20123;-81
2022/04/04 09:33:53;;;;;;;9.57;3.90;;;5.00;99.90;;;;;;4893213;29;20184;-76
2022/04/04 09:36:21;;;;;;;9.20;3.75;;;5.00;99.90;;;;;;4878009;29;20056;-82
2022/04/04 09:39:03;;;;;;;9.23;2.90;;;5.00;99.90;;;;;;4877837;29;20076;-73
2022/04/04 09:41:30;;;;;;;;;;;5.00;99.90;;;;;;4890626;29;20083;-74
2022/04/04 09:43:59;;;;;;;9.40;2.83;;;5.10;99.90;;;;;;4893221;29;19919;-75
2022/04/04 09:46:41;;;;;;;8.85;3.00;;;5.10;99.90;;;;;;4876302;29;20052;-84
2022/04/04 09:49:16;;;;;;;7.38;2.22;;;5.50;99.90;;;;;;4892924;29;20412;-81
2022/04/04 09:51:48;;;;;;;11.80;2.38;;;5.30;99.90;;;;;;4876472;29;20040;-80
2022/04/04 09:54:23;;;;;;;6.97;2.63;;;5.20;99.90;;;;;;4901594;29;20044;-71
2022/04/04 09:56:53;;;;;;;9.45;2.00;;;5.30;99.90;;;;;;4899245;29;20044;-83
2022/04/04 09:59:19;;;;;;;6.88;2.45;;;5.30;99.90;;;;;;4877734;29;20425;-83
2022/04/04 10:01:46;;;;;;;5.40;2.38;;;5.90;99.90;;;;;;4894168;29;20044;-82
2022/04/04 10:04:13;;;;;;;8.32;1.92;;;5.30;99.90;;;;;;4892192;29;20100;-81
2022/04/04 10:06:42;;;;;;;5.75;1.92;;;5.40;99.90;;;;;;4895171;29;20047;-82
2022/04/04 10:09:08;;;;;;;7.55;1.85;;;5.40;99.90;;;;;;4894393;29;20060;-79
2022/04/04 10:11:38;;;;;;;10.20;2.53;;;5.40;99.90;;;;;;4876921;29;20060;-81
2022/04/04 10:14:04;;;;;;;5.15;1.83;;;6.00;99.90;;;;;;4898210;29;20053;-79
2022/04/04 10:16:32;;;;;;;6.22;2.28;;;5.50;99.90;;;;;;4894487;29;20444;-74
2022/04/04 10:18:58;;;;;;;9.00;2.08;;;6.00;99.90;;;;;;4894980;29;20060;-71
2022/04/04 10:21:27;;;;;;;5.32;1.73;;;5.70;99.90;;;;;;4895041;29;20390;-82
2022/04/04 10:23:57;;;;;;;4.43;1.90;;;5.60;99.90;;;;;;4893443;29;20087;-82
2022/04/04 10:26:27;;;;;;;6.43;1.98;;;5.60;99.90;;;;;;4894512;29;20413;-80
2022/04/04 10:29:10;;;;;;;6.60;2.28;;;5.50;99.90;;;;;;4877620;29;20131;-80
2022/04/04 10:31:44;;;;;;;5.65;2.05;;;5.50;99.90;;;;;;4894079;29;20048;-80
2022/04/04 10:34:16;;;;;;;6.55;2.10;;;5.50;99.90;;;;;;4890069;29;20098;-75
2022/04/04 10:37:15;;;;;;;5.07;2.22;;;5.50;99.90;;;;;;4890279;29;20135;-75
2022/04/04 10:39:45;;;;;;;5.85;2.15;;;5.60;99.90;;;;;;4894693;29;20045;-72
2022/04/04 10:42:41;;;;;;;5.63;2.30;;;5.60;99.90;;;;;;4892481;29;20040;-75
2022/04/04 10:45:28;;;;;;;7.72;2.72;;;5.60;99.90;;;;;;4892557;29;20048;-72
2022/04/04 10:48:06;;;;;;;6.97;2.40;;;5.60;99.90;;;;;;4875108;29;20061;-71
2022/04/04 10:50:33;;;;;;;5.70;2.50;;;5.60;99.90;;;;;;4896879;29;20497;-75
2022/04/04 10:53:03;;;;;;;6.20;2.05;;;5.60;99.90;;;;;;4893596;29;20425;-78
2022/04/04 10:55:37;;;;;;;5.43;2.08;;;5.70;99.90;;;;;;4898947;29;20431;-76
2022/04/04 10:58:19;;;;;;;6.30;2.15;;;6.20;99.90;;;;;;4897803;29;20049;-75
2022/04/04 11:01:16;;;;;;;5.55;2.35;;;5.70;99.90;;;;;;4900746;29;20052;-75
2022/04/04 11:03:51;;;;;;;7.60;2.45;;;5.70;99.90;;;;;;4895695;29;20405;-77
2022/04/04 11:09:26;;;;;;;6.35;2.50;;;5.80;99.90;;;;;;4878803;29;20052;-74
2022/04/04 11:12:00;;;;;;;5.28;2.25;;;5.70;99.90;;;;;;4896297;29;20064;-78
2022/04/04 11:14:36;;;;;;;5.22;2.30;;;6.60;99.90;;;;;;4880579;29;20080;-83
2022/04/04 11:17:08;;;;;;;6.78;2.30;;;5.70;99.90;;;;;;4866371;29;20055;-83
2022/04/04 11:19:45;;;;;;;7.15;2.45;;;5.70;99.90;;;;;;4898269;29;20061;-83
2022/04/04 11:22:18;;;;;;;7.43;2.22;;;5.70;99.90;;;;;;4896496;29;20048;-86
2022/04/04 11:24:52;;;;;;;9.23;2.33;;;5.80;99.90;;;;;;4881441;29;20057;-84
2022/04/04 11:27:19;;;;;;;7.00;2.03;;;5.80;99.90;;;;;;4880474;29;20052;-84
2022/04/04 11:29:45;;;;;;;6.13;2.08;;;5.80;99.90;;;;;;4881390;29;20052;-86
2022/04/04 11:32:19;;;;;;;6.40;2.00;;;5.80;99.90;;;;;;4896945;29;20048;-83
2022/04/04 11:34:45;;;;;;;5.60;1.88;;;5.90;99.90;;;;;;4897637;29;20207;-77
2022/04/04 11:37:17;;;;;;;4.38;1.70;;;6.20;99.90;;;;;;4878672;29;20171;-80
2022/04/04 11:39:46;;;;;;;5.65;2.13;;;5.90;99.90;;;;;;4881352;29;20508;-74
2022/04/04 11:42:12;;;;;;;5.90;2.33;;;5.90;99.90;;;;;;4904389;29;20489;-74
2022/04/04 11:44:45;;;;;;;5.07;1.77;;;6.50;99.90;;;;;;4887188;29;20051;-73
2022/04/04 11:47:12;;;;;;;5.63;1.98;;;6.40;99.90;;;;;;4898017;29;20046;-73
2022/04/04 11:49:40;;;;;;;6.75;2.00;;;6.10;99.90;;;;;;4880594;29;20490;-76
2022/04/04 11:52:07;;;;;;;6.75;1.63;;;6.20;99.90;;;;;;4879045;29;20079;-78
2022/04/04 11:55:07;;;;;;;4.78;1.90;;;6.30;99.90;;;;;;4896618;29;20524;-78
2022/04/04 11:57:33;;;;;;;4.05;1.50;;;6.20;99.90;;;;;;4846032;29;20106;-79
2022/04/04 11:59:59;;;;;;;4.05;1.70;;;6.30;99.90;;;;;;4848371;29;20050;-80
2022/04/04 12:02:30;;;;;;;4.30;1.70;;;6.70;99.90;;;;;;4843389;29;20057;-76
2022/04/04 12:04:57;;;;;;;4.53;1.48;;;6.70;99.90;;;;;;4828648;29;20094;-76
2022/04/04 12:07:23;;;;;;;5.75;1.40;;;6.40;99.90;;;;;;4830957;29;20499;-72
2022/04/04 12:09:52;;;;;;;5.20;1.60;;;6.40;99.90;;;;;;4845250;29;20165;-73
2022/04/04 12:12:18;;;;;;;2.67;1.20;;;6.50;99.90;;;;;;4849983;29;20062;-72
2022/04/04 12:14:47;;;;;;;3.65;1.23;;;6.50;99.90;;;;;;4815720;29;20077;-72
2022/04/04 12:17:16;;;;;;;3.08;1.10;;;6.50;99.90;;;;;;4831827;29;20133;-71
2022/04/04 12:19:47;;;;;;;5.15;1.30;;;6.50;99.90;;;;;;4830744;29;20497;-72
2022/04/04 12:25:00;;;;;;;2.15;1.00;;;6.50;99.90;;;;;;4847290;29;20140;-73
2022/04/04 12:27:26;;;;;;;4.00;1.20;;;6.40;99.90;;;;;;4855330;29;20614;-71
2022/04/04 12:30:01;;;;;;;2.10;1.00;;;6.40;99.90;;;;;;4854353;29;20136;-71
2022/04/04 12:32:32;;;;;;;2.30;0.93;;;6.50;99.90;;;;;;4841720;29;20049;-74
2022/04/04 12:35:00;;;;;;;3.50;1.17;;;6.50;99.90;;;;;;4877073;29;20056;-70
2022/04/04 12:37:38;;;;;;;1.58;0.82;;;6.60;99.90;;;;;;4879395;29;20144;-73
2022/04/04 12:40:18;;;;;;;2.65;0.98;;;6.50;99.90;;;;;;4895090;29;20068;-73
2022/04/04 12:42:47;;;;;;;2.20;0.90;;;6.60;99.90;;;;;;4894725;29;20060;-73
2022/04/04 12:45:13;;;;;;;5.88;1.05;;;6.60;99.90;;;;;;4896305;29;20056;-74
2022/04/04 12:48:04;;;;;;;3.03;0.80;;;6.60;99.90;;;;;;4896536;29;20045;-74
2022/04/04 12:50:39;;;;;;;1.88;0.82;;;6.60;99.90;;;;;;4895568;29;20115;-73
2022/04/04 12:53:07;;;;;;;3.30;0.98;;;6.70;99.90;;;;;;4895313;29;20097;-72
2022/04/04 12:55:34;;;;;;;1.17;0.70;;;6.80;99.90;;;;;;4899090;29;20378;-74
2022/04/04 12:58:15;;;;;;;1.73;0.80;;;6.90;99.90;;;;;;4900414;29;20467;-73
2022/04/04 13:00:41;;;;;;;1.42;0.70;;;6.90;99.90;;;;;;4896531;29;20060;-76
2022/04/04 13:03:26;;;;;;;1.90;0.65;;;7.00;99.90;;;;;;4875951;29;20040;-73
2022/04/04 13:05:57;;;;;;;2.45;0.90;;;6.90;99.90;;;;;;4896162;29;20457;-71